sensor_id;sensor_type;location;lat;lon;timestamp;pressure;altitude;pressure_sealevel;temperature;humidity
61769;BME280;47669;48.712;9.016;2023-07-31T00:01:57;96712.47;;;12.54;84.12
61769;BME280;47669;48.712;9.016;2023-07-31T00:04:22;96708.03;;;12.30;84.69
61769;BME280;47669;48.712;9.016;2023-07-31T00:06:47;96712.94;;;12.26;84.75
61769;BME280;47669;48.712;9.016;2023-07-31T00:09:13;96719.97;;;12.14;85.68
61769;BME280;47669;48.712;9.016;2023-07-31T00:11:38;96714.72;;;12.07;85.89
61769;BME280;47669;48.712;9.016;2023-07-31T00:14:04;96719.84;;;12.27;84.34
61769;BME280;47669;48.712;9.016;2023-07-31T00:16:29;96726.50;;;12.11;86.04
61769;BME280;47669;48.712;9.016;2023-07-31T00:18:54;96730.22;;;12.04;85.74
61769;BME280;47669;48.712;9.016;2023-07-31T00:21:20;96725.47;;;12.12;85.73
61769;BME280;47669;48.712;9.016;2023-07-31T00:23:45;96727.13;;;12.13;85.59
61769;BME280;47669;48.712;9.016;2023-07-31T00:26:10;96728.06;;;12.19;84.23
61769;BME280;47669;48.712;9.016;2023-07-31T00:28:36;96721.91;;;12.25;84.16
61769;BME280;47669;48.712;9.016;2023-07-31T00:31:01;96716.66;;;11.93;84.99
61769;BME280;47669;48.712;9.016;2023-07-31T00:33:29;96719.94;;;11.89;86.08
61769;BME280;47669;48.712;9.016;2023-07-31T00:35:54;96719.69;;;11.97;85.53
61769;BME280;47669;48.712;9.016;2023-07-31T00:38:20;96721.56;;;12.15;84.56
61769;BME280;47669;48.712;9.016;2023-07-31T00:40:45;96718.06;;;11.96;85.20
61769;BME280;47669;48.712;9.016;2023-07-31T00:43:10;96714.06;;;12.12;84.17
61769;BME280;47669;48.712;9.016;2023-07-31T00:45:36;96717.13;;;12.15;83.76
61769;BME280;47669;48.712;9.016;2023-07-31T00:48:01;96701.09;;;12.04;83.53
61769;BME280;47669;48.712;9.016;2023-07-31T00:50:28;96701.19;;;11.90;84.38
61769;BME280;47669;48.712;9.016;2023-07-31T00:52:53;96695.19;;;11.70;85.32
61769;BME280;47669;48.712;9.016;2023-07-31T00:55:19;96706.69;;;11.89;84.93
61769;BME280;47669;48.712;9.016;2023-07-31T00:57:45;96703.84;;;12.40;83.14
61769;BME280;47669;48.712;9.016;2023-07-31T01:00:10;96701.00;;;12.60;81.63
61769;BME280;47669;48.712;9.016;2023-07-31T01:02:36;96709.34;;;12.64;81.04
61769;BME280;47669;48.712;9.016;2023-07-31T01:05:03;96701.81;;;12.42;82.10
61769;BME280;47669;48.712;9.016;2023-07-31T01:07:35;96697.63;;;12.53;82.40
61769;BME280;47669;48.712;9.016;2023-07-31T01:10:11;96696.66;;;12.66;81.51
61769;BME280;47669;48.712;9.016;2023-07-31T01:12:41;96692.56;;;12.27;83.25
61769;BME280;47669;48.712;9.016;2023-07-31T01:15:08;96693.50;;;12.57;82.07
61769;BME280;47669;48.712;9.016;2023-07-31T01:17:41;96696.91;;;12.39;82.29
61769;BME280;47669;48.712;9.016;2023-07-31T01:20:12;96692.38;;;12.47;82.68
61769;BME280;47669;48.712;9.016;2023-07-31T01:25:32;96687.78;;;12.10;84.76
61769;BME280;47669;48.712;9.016;2023-07-31T01:28:05;96682.94;;;12.07;84.78
61769;BME280;47669;48.712;9.016;2023-07-31T01:30:38;96685.53;;;11.82;85.34
61769;BME280;47669;48.712;9.016;2023-07-31T01:33:07;96684.06;;;11.93;85.89
61769;BME280;47669;48.712;9.016;2023-07-31T01:35:34;96682.66;;;11.90;85.70
61769;BME280;47669;48.712;9.016;2023-07-31T01:38:00;96685.19;;;11.72;86.56
61769;BME280;47669;48.712;9.016;2023-07-31T01:40:25;96684.94;;;11.80;86.38
61769;BME280;47669;48.712;9.016;2023-07-31T01:42:50;96673.00;;;12.02;85.01
61769;BME280;47669;48.712;9.016;2023-07-31T01:45:16;96677.59;;;12.14;84.62
61769;BME280;47669;48.712;9.016;2023-07-31T01:47:41;96678.66;;;12.06;84.67
61769;BME280;47669;48.712;9.016;2023-07-31T01:50:07;96673.88;;;12.15;84.46
61769;BME280;47669;48.712;9.016;2023-07-31T01:52:32;96682.88;;;11.82;85.44
61769;BME280;47669;48.712;9.016;2023-07-31T01:54:58;96680.34;;;11.69;86.32
61769;BME280;47669;48.712;9.016;2023-07-31T01:57:23;96673.25;;;12.19;83.76
61769;BME280;47669;48.712;9.016;2023-07-31T01:59:48;96671.22;;;12.40;82.86
61769;BME280;47669;48.712;9.016;2023-07-31T02:02:14;96664.47;;;12.62;81.70
61769;BME280;47669;48.712;9.016;2023-07-31T02:04:39;96660.28;;;12.73;81.02
61769;BME280;47669;48.712;9.016;2023-07-31T02:07:06;96649.59;;;12.80;80.66
61769;BME280;47669;48.712;9.016;2023-07-31T02:09:31;96651.72;;;12.71;81.11
61769;BME280;47669;48.712;9.016;2023-07-31T02:11:56;96641.34;;;12.70;81.33
61769;BME280;47669;48.712;9.016;2023-07-31T02:14:22;96640.53;;;12.88;80.24
61769;BME280;47669;48.712;9.016;2023-07-31T02:16:47;96645.97;;;12.93;79.49
61769;BME280;47669;48.712;9.016;2023-07-31T02:19:12;96642.44;;;12.99;78.94
61769;BME280;47669;48.712;9.016;2023-07-31T02:21:38;96635.84;;;13.01;78.92
61769;BME280;47669;48.712;9.016;2023-07-31T02:24:03;96634.97;;;13.08;79.39
61769;BME280;47669;48.712;9.016;2023-07-31T02:26:29;96632.63;;;12.99;79.27
61769;BME280;47669;48.712;9.016;2023-07-31T02:28:54;96623.72;;;12.94;79.40
61769;BME280;47669;48.712;9.016;2023-07-31T02:31:19;96622.53;;;13.08;78.59
61769;BME280;47669;48.712;9.016;2023-07-31T02:33:45;96620.22;;;13.12;78.31
61769;BME280;47669;48.712;9.016;2023-07-31T02:36:10;96615.81;;;13.06;78.53
61769;BME280;47669;48.712;9.016;2023-07-31T02:38:36;96615.75;;;13.12;78.16
61769;BME280;47669;48.712;9.016;2023-07-31T02:41:01;96621.53;;;13.21;78.33
61769;BME280;47669;48.712;9.016;2023-07-31T02:43:26;96620.22;;;13.12;78.20
61769;BME280;47669;48.712;9.016;2023-07-31T02:45:52;96617.63;;;13.23;77.64
61769;BME280;47669;48.712;9.016;2023-07-31T02:48:18;96619.63;;;13.10;77.83
61769;BME280;47669;48.712;9.016;2023-07-31T02:50:44;96610.94;;;13.21;77.30
61769;BME280;47669;48.712;9.016;2023-07-31T02:53:09;96610.78;;;13.16;77.57
61769;BME280;47669;48.712;9.016;2023-07-31T02:55:34;96605.13;;;13.12;77.65
61769;BME280;47669;48.712;9.016;2023-07-31T02:58:00;96601.44;;;13.13;77.35
61769;BME280;47669;48.712;9.016;2023-07-31T03:00:25;96597.47;;;13.04;78.25
61769;BME280;47669;48.712;9.016;2023-07-31T03:02:50;96598.56;;;13.15;77.47
61769;BME280;47669;48.712;9.016;2023-07-31T03:05:16;96598.69;;;13.20;76.95
61769;BME280;47669;48.712;9.016;2023-07-31T03:07:41;96599.47;;;13.20;77.36
61769;BME280;47669;48.712;9.016;2023-07-31T03:10:07;96603.31;;;13.24;76.81
61769;BME280;47669;48.712;9.016;2023-07-31T03:12:32;96602.28;;;13.26;76.22
61769;BME280;47669;48.712;9.016;2023-07-31T03:14:58;96605.31;;;13.29;76.42
61769;BME280;47669;48.712;9.016;2023-07-31T03:17:23;96608.31;;;13.33;76.52
61769;BME280;47669;48.712;9.016;2023-07-31T03:19:48;96610.63;;;13.29;76.36
61769;BME280;47669;48.712;9.016;2023-07-31T03:22:14;96609.72;;;13.35;75.70
61769;BME280;47669;48.712;9.016;2023-07-31T03:24:39;96605.09;;;13.31;75.80
61769;BME280;47669;48.712;9.016;2023-07-31T03:27:05;96607.22;;;13.40;75.48
61769;BME280;47669;48.712;9.016;2023-07-31T03:29:30;96611.13;;;13.38;75.69
61769;BME280;47669;48.712;9.016;2023-07-31T03:31:55;96604.94;;;13.26;76.09
61769;BME280;47669;48.712;9.016;2023-07-31T03:34:21;96600.25;;;13.39;75.48
61769;BME280;47669;48.712;9.016;2023-07-31T03:36:46;96607.38;;;13.27;76.06
61769;BME280;47669;48.712;9.016;2023-07-31T03:39:12;96614.09;;;13.30;75.95
61769;BME280;47669;48.712;9.016;2023-07-31T03:41:37;96612.38;;;13.35;75.96
61769;BME280;47669;48.712;9.016;2023-07-31T03:44:02;96614.59;;;13.38;75.66
61769;BME280;47669;48.712;9.016;2023-07-31T03:46:28;96614.13;;;13.41;75.24
61769;BME280;47669;48.712;9.016;2023-07-31T03:48:53;96610.13;;;13.51;74.88
61769;BME280;47669;48.712;9.016;2023-07-31T03:51:19;96602.59;;;13.48;75.37
61769;BME280;47669;48.712;9.016;2023-07-31T03:53:44;96612.91;;;13.26;76.36
61769;BME280;47669;48.712;9.016;2023-07-31T03:56:10;96616.66;;;13.36;76.25
61769;BME280;47669;48.712;9.016;2023-07-31T03:58:36;96603.81;;;13.33;76.08
61769;BME280;47669;48.712;9.016;2023-07-31T04:01:02;96615.06;;;13.47;75.48
61769;BME280;47669;48.712;9.016;2023-07-31T04:03:28;96612.19;;;13.49;75.44
61769;BME280;47669;48.712;9.016;2023-07-31T04:05:54;96618.63;;;13.41;75.80
61769;BME280;47669;48.712;9.016;2023-07-31T04:08:20;96614.03;;;13.48;75.51
61769;BME280;47669;48.712;9.016;2023-07-31T04:10:45;96616.81;;;13.53;75.79
61769;BME280;47669;48.712;9.016;2023-07-31T04:13:10;96616.03;;;13.53;74.91
61769;BME280;47669;48.712;9.016;2023-07-31T04:15:36;96610.94;;;13.51;75.65
61769;BME280;47669;48.712;9.016;2023-07-31T04:18:01;96609.88;;;13.52;75.12
61769;BME280;47669;48.712;9.016;2023-07-31T04:20:26;96598.50;;;13.63;75.05
61769;BME280;47669;48.712;9.016;2023-07-31T04:22:52;96602.28;;;13.56;75.20
61769;BME280;47669;48.712;9.016;2023-07-31T04:25:17;96604.56;;;13.52;75.56
61769;BME280;47669;48.712;9.016;2023-07-31T04:27:43;96605.72;;;13.56;75.28
61769;BME280;47669;48.712;9.016;2023-07-31T04:30:09;96608.63;;;13.55;76.13
61769;BME280;47669;48.712;9.016;2023-07-31T04:32:34;96602.31;;;13.68;75.37
61769;BME280;47669;48.712;9.016;2023-07-31T04:35:00;96606.13;;;13.72;75.02
61769;BME280;47669;48.712;9.016;2023-07-31T04:37:26;96607.28;;;13.76;75.04
61769;BME280;47669;48.712;9.016;2023-07-31T04:39:51;96612.72;;;13.81;75.10
61769;BME280;47669;48.712;9.016;2023-07-31T04:42:16;96597.03;;;13.91;74.29
61769;BME280;47669;48.712;9.016;2023-07-31T04:44:42;96603.13;;;13.92;73.66
61769;BME280;47669;48.712;9.016;2023-07-31T04:47:07;96605.09;;;13.96;73.88
61769;BME280;47669;48.712;9.016;2023-07-31T04:49:32;96603.81;;;13.99;74.27
61769;BME280;47669;48.712;9.016;2023-07-31T04:51:58;96596.56;;;14.06;74.00
61769;BME280;47669;48.712;9.016;2023-07-31T04:54:23;96605.66;;;13.98;73.66
61769;BME280;47669;48.712;9.016;2023-07-31T04:56:49;96599.91;;;14.01;73.65
61769;BME280;47669;48.712;9.016;2023-07-31T04:59:14;96601.75;;;14.01;74.13
61769;BME280;47669;48.712;9.016;2023-07-31T05:01:39;96593.91;;;14.06;73.56
61769;BME280;47669;48.712;9.016;2023-07-31T05:04:05;96595.38;;;14.14;73.09
61769;BME280;47669;48.712;9.016;2023-07-31T05:06:30;96606.28;;;14.12;73.32
61769;BME280;47669;48.712;9.016;2023-07-31T05:08:55;96602.56;;;14.13;72.77
61769;BME280;47669;48.712;9.016;2023-07-31T05:11:21;96600.38;;;14.10;73.75
61769;BME280;47669;48.712;9.016;2023-07-31T05:13:46;96594.72;;;14.18;73.30
61769;BME280;47669;48.712;9.016;2023-07-31T05:16:11;96601.63;;;14.19;73.29
61769;BME280;47669;48.712;9.016;2023-07-31T05:18:37;96606.16;;;14.19;72.91
61769;BME280;47669;48.712;9.016;2023-07-31T05:21:02;96596.66;;;14.23;73.96
61769;BME280;47669;48.712;9.016;2023-07-31T05:23:27;96591.59;;;14.33;73.14
61769;BME280;47669;48.712;9.016;2023-07-31T05:25:53;96590.44;;;14.29;73.92
61769;BME280;47669;48.712;9.016;2023-07-31T05:28:18;96597.47;;;14.23;73.13
61769;BME280;47669;48.712;9.016;2023-07-31T05:30:44;96600.47;;;14.39;73.29
61769;BME280;47669;48.712;9.016;2023-07-31T05:33:09;96606.47;;;14.46;72.78
61769;BME280;47669;48.712;9.016;2023-07-31T05:35:35;96604.72;;;14.63;72.72
61769;BME280;47669;48.712;9.016;2023-07-31T05:38:00;96608.31;;;14.45;72.32
61769;BME280;47669;48.712;9.016;2023-07-31T05:40:26;96605.91;;;14.56;72.76
61769;BME280;47669;48.712;9.016;2023-07-31T05:42:51;96617.44;;;14.73;71.89
61769;BME280;47669;48.712;9.016;2023-07-31T05:45:17;96608.97;;;14.76;71.95
61769;BME280;47669;48.712;9.016;2023-07-31T05:47:42;96609.41;;;14.85;71.67
61769;BME280;47669;48.712;9.016;2023-07-31T05:50:08;96596.88;;;14.97;71.58
61769;BME280;47669;48.712;9.016;2023-07-31T05:52:33;96599.97;;;15.06;71.62
61769;BME280;47669;48.712;9.016;2023-07-31T05:54:58;96597.16;;;14.84;70.84
61769;BME280;47669;48.712;9.016;2023-07-31T05:57:24;96588.69;;;14.87;71.43
61769;BME280;47669;48.712;9.016;2023-07-31T05:59:49;96596.88;;;14.97;71.77
61769;BME280;47669;48.712;9.016;2023-07-31T06:02:14;96597.81;;;15.03;70.32
61769;BME280;47669;48.712;9.016;2023-07-31T06:04:40;96605.06;;;15.07;71.73
61769;BME280;47669;48.712;9.016;2023-07-31T06:07:05;96596.03;;;15.09;70.55
61769;BME280;47669;48.712;9.016;2023-07-31T06:09:31;96600.16;;;15.16;70.33
61769;BME280;47669;48.712;9.016;2023-07-31T06:11:56;96606.25;;;15.29;70.09
61769;BME280;47669;48.712;9.016;2023-07-31T06:14:21;96604.56;;;15.39;69.96
61769;BME280;47669;48.712;9.016;2023-07-31T06:16:47;96591.16;;;15.34;69.50
61769;BME280;47669;48.712;9.016;2023-07-31T06:19:12;96583.88;;;15.58;69.67
61769;BME280;47669;48.712;9.016;2023-07-31T06:21:38;96577.81;;;15.63;68.69
61769;BME280;47669;48.712;9.016;2023-07-31T06:24:04;96586.59;;;15.63;69.48
61769;BME280;47669;48.712;9.016;2023-07-31T06:26:30;96585.19;;;15.73;70.09
61769;BME280;47669;48.712;9.016;2023-07-31T06:28:56;96586.41;;;15.82;68.15
61769;BME280;47669;48.712;9.016;2023-07-31T06:31:21;96591.50;;;15.83;68.38
61769;BME280;47669;48.712;9.016;2023-07-31T06:33:49;96585.25;;;15.95;67.99
61769;BME280;47669;48.712;9.016;2023-07-31T06:36:14;96586.53;;;16.26;66.71
61769;BME280;47669;48.712;9.016;2023-07-31T06:38:39;96580.41;;;16.69;66.71
61769;BME280;47669;48.712;9.016;2023-07-31T06:41:05;96579.97;;;16.78;65.62
61769;BME280;47669;48.712;9.016;2023-07-31T06:43:30;96581.66;;;16.84;64.83
61769;BME280;47669;48.712;9.016;2023-07-31T06:45:56;96577.53;;;16.76;64.82
61769;BME280;47669;48.712;9.016;2023-07-31T06:48:21;96582.16;;;17.03;64.73
61769;BME280;47669;48.712;9.016;2023-07-31T06:50:46;96584.66;;;16.48;64.03
61769;BME280;47669;48.712;9.016;2023-07-31T06:53:12;96596.13;;;16.66;65.59
61769;BME280;47669;48.712;9.016;2023-07-31T06:55:37;96591.81;;;16.43;65.46
61769;BME280;47669;48.712;9.016;2023-07-31T06:58:02;96592.84;;;16.42;66.03
61769;BME280;47669;48.712;9.016;2023-07-31T07:00:28;96593.72;;;16.47;65.59
61769;BME280;47669;48.712;9.016;2023-07-31T07:02:54;96590.28;;;16.47;64.19
61769;BME280;47669;48.712;9.016;2023-07-31T07:05:19;96590.50;;;16.67;64.20
61769;BME280;47669;48.712;9.016;2023-07-31T07:07:45;96594.75;;;17.07;64.29
61769;BME280;47669;48.712;9.016;2023-07-31T07:10:10;96582.16;;;17.03;62.89
61769;BME280;47669;48.712;9.016;2023-07-31T07:12:36;96585.53;;;16.76;62.86
61769;BME280;47669;48.712;9.016;2023-07-31T07:15:02;96592.06;;;17.07;64.27
61769;BME280;47669;48.712;9.016;2023-07-31T07:17:29;96592.41;;;17.38;62.19
61769;BME280;47669;48.712;9.016;2023-07-31T07:19:58;96586.31;;;17.48;61.88
61769;BME280;47669;48.712;9.016;2023-07-31T07:22:24;96580.25;;;17.25;60.84
61769;BME280;47669;48.712;9.016;2023-07-31T07:24:49;96578.28;;;17.16;61.66
61769;BME280;47669;48.712;9.016;2023-07-31T07:27:14;96576.72;;;17.20;61.27
61769;BME280;47669;48.712;9.016;2023-07-31T07:29:40;96567.00;;;17.08;62.06
61769;BME280;47669;48.712;9.016;2023-07-31T07:32:05;96569.59;;;17.30;61.95
61769;BME280;47669;48.712;9.016;2023-07-31T07:34:31;96573.84;;;17.26;62.26
61769;BME280;47669;48.712;9.016;2023-07-31T07:36:56;96562.50;;;17.41;62.08
61769;BME280;47669;48.712;9.016;2023-07-31T07:39:22;96561.31;;;17.59;61.58
61769;BME280;47669;48.712;9.016;2023-07-31T07:41:47;96562.69;;;17.62;60.32
61769;BME280;47669;48.712;9.016;2023-07-31T07:44:13;96567.31;;;17.72;59.72
61769;BME280;47669;48.712;9.016;2023-07-31T07:46:38;96566.75;;;18.07;59.90
61769;BME280;47669;48.712;9.016;2023-07-31T07:49:04;96559.28;;;18.04;59.07
61769;BME280;47669;48.712;9.016;2023-07-31T07:51:29;96565.25;;;18.16;58.79
61769;BME280;47669;48.712;9.016;2023-07-31T07:53:56;96552.81;;;19.16;57.81
61769;BME280;47669;48.712;9.016;2023-07-31T07:56:23;96551.75;;;19.11;56.95
61769;BME280;47669;48.712;9.016;2023-07-31T07:58:49;96556.59;;;19.61;57.01
61769;BME280;47669;48.712;9.016;2023-07-31T08:01:15;96553.59;;;19.11;56.27
61769;BME280;47669;48.712;9.016;2023-07-31T08:03:40;96562.97;;;18.45;57.14
61769;BME280;47669;48.712;9.016;2023-07-31T08:06:06;96570.31;;;18.70;56.32
61769;BME280;47669;48.712;9.016;2023-07-31T08:08:31;96562.88;;;18.25;56.50
61769;BME280;47669;48.712;9.016;2023-07-31T08:10:56;96554.28;;;18.76;56.20
61769;BME280;47669;48.712;9.016;2023-07-31T08:13:22;96554.06;;;18.29;57.35
61769;BME280;47669;48.712;9.016;2023-07-31T08:15:47;96550.97;;;18.48;57.11
61769;BME280;47669;48.712;9.016;2023-07-31T08:18:12;96545.78;;;18.89;55.76
61769;BME280;47669;48.712;9.016;2023-07-31T08:20:38;96552.75;;;19.00;56.48
61769;BME280;47669;48.712;9.016;2023-07-31T08:23:04;96541.34;;;19.56;57.07
61769;BME280;47669;48.712;9.016;2023-07-31T08:25:29;96544.53;;;19.43;54.62
61769;BME280;47669;48.712;9.016;2023-07-31T08:27:55;96537.31;;;19.59;55.34
61769;BME280;47669;48.712;9.016;2023-07-31T08:30:20;96528.97;;;19.45;54.09
61769;BME280;47669;48.712;9.016;2023-07-31T08:32:46;96542.63;;;19.23;53.84
61769;BME280;47669;48.712;9.016;2023-07-31T08:35:11;96538.09;;;19.59;55.36
61769;BME280;47669;48.712;9.016;2023-07-31T08:37:38;96533.28;;;19.56;54.73
61769;BME280;47669;48.712;9.016;2023-07-31T08:40:04;96532.53;;;18.62;56.15
61769;BME280;47669;48.712;9.016;2023-07-31T08:42:30;96523.53;;;18.78;56.40
61769;BME280;47669;48.712;9.016;2023-07-31T08:44:56;96522.28;;;19.11;55.91
61769;BME280;47669;48.712;9.016;2023-07-31T08:47:21;96520.69;;;18.42;56.68
61769;BME280;47669;48.712;9.016;2023-07-31T08:49:47;96520.19;;;18.56;57.19
61769;BME280;47669;48.712;9.016;2023-07-31T08:52:13;96525.34;;;18.67;57.94
61769;BME280;47669;48.712;9.016;2023-07-31T08:54:38;96532.13;;;18.27;57.97
61769;BME280;47669;48.712;9.016;2023-07-31T08:57:05;96528.84;;;18.15;57.90
61769;BME280;47669;48.712;9.016;2023-07-31T08:59:34;96524.47;;;18.51;58.26
61769;BME280;47669;48.712;9.016;2023-07-31T09:02:05;96526.38;;;18.61;57.06
61769;BME280;47669;48.712;9.016;2023-07-31T09:04:32;96510.06;;;18.73;56.81
61769;BME280;47669;48.712;9.016;2023-07-31T09:07:01;96504.69;;;18.52;57.28
61769;BME280;47669;48.712;9.016;2023-07-31T09:09:28;96504.53;;;18.90;56.90
61769;BME280;47669;48.712;9.016;2023-07-31T09:11:54;96482.09;;;19.83;56.09
61769;BME280;47669;48.712;9.016;2023-07-31T09:14:21;96481.13;;;20.34;56.26
61769;BME280;47669;48.712;9.016;2023-07-31T09:16:57;96501.66;;;19.63;54.84
61769;BME280;47669;48.712;9.016;2023-07-31T09:19:33;96501.91;;;19.36;54.07
61769;BME280;47669;48.712;9.016;2023-07-31T09:21:59;96506.44;;;19.05;55.34
61769;BME280;47669;48.712;9.016;2023-07-31T09:24:29;96503.28;;;19.64;55.25
61769;BME280;47669;48.712;9.016;2023-07-31T09:26:56;96497.03;;;18.87;54.93
61769;BME280;47669;48.712;9.016;2023-07-31T09:29:22;96501.66;;;19.38;55.83
61769;BME280;47669;48.712;9.016;2023-07-31T09:31:48;96511.28;;;19.08;55.98
61769;BME280;47669;48.712;9.016;2023-07-31T09:34:13;96495.75;;;19.15;56.06
61769;BME280;47669;48.712;9.016;2023-07-31T09:36:43;96503.50;;;19.06;55.43
61769;BME280;47669;48.712;9.016;2023-07-31T09:39:10;96486.66;;;19.31;55.46
61769;BME280;47669;48.712;9.016;2023-07-31T09:41:38;96483.69;;;19.28;55.58
61769;BME280;47669;48.712;9.016;2023-07-31T09:44:03;96471.81;;;20.11;55.39
61769;BME280;47669;48.712;9.016;2023-07-31T09:46:29;96461.56;;;20.28;55.09
61769;BME280;47669;48.712;9.016;2023-07-31T09:49:12;96459.59;;;20.44;52.71
61769;BME280;47669;48.712;9.016;2023-07-31T09:51:39;96453.84;;;20.11;55.33
61769;BME280;47669;48.712;9.016;2023-07-31T09:54:14;96446.41;;;19.67;55.56
61769;BME280;47669;48.712;9.016;2023-07-31T09:56:47;96456.19;;;20.23;53.61
61769;BME280;47669;48.712;9.016;2023-07-31T09:59:18;96449.84;;;20.69;53.06
61769;BME280;47669;48.712;9.016;2023-07-31T10:01:45;96450.28;;;20.86;52.84
61769;BME280;47669;48.712;9.016;2023-07-31T10:04:12;96443.94;;;20.67;53.51
61769;BME280;47669;48.712;9.016;2023-07-31T10:06:39;96451.59;;;20.39;53.07
61769;BME280;47669;48.712;9.016;2023-07-31T10:09:09;96436.19;;;21.05;52.05
61769;BME280;47669;48.712;9.016;2023-07-31T10:11:46;96421.31;;;20.78;50.72
61769;BME280;47669;48.712;9.016;2023-07-31T10:14:18;96427.09;;;20.51;51.27
61769;BME280;47669;48.712;9.016;2023-07-31T10:16:44;96431.25;;;20.83;52.13
61769;BME280;47669;48.712;9.016;2023-07-31T10:19:10;96428.31;;;21.13;50.35
61769;BME280;47669;48.712;9.016;2023-07-31T10:21:35;96414.63;;;20.81;49.41
61769;BME280;47669;48.712;9.016;2023-07-31T10:24:04;96415.59;;;21.24;50.46
61769;BME280;47669;48.712;9.016;2023-07-31T10:26:30;96420.31;;;21.43;50.02
61769;BME280;47669;48.712;9.016;2023-07-31T10:28:57;96413.47;;;21.80;50.23
61769;BME280;47669;48.712;9.016;2023-07-31T10:31:24;96419.97;;;20.81;50.44
61769;BME280;47669;48.712;9.016;2023-07-31T10:33:51;96402.03;;;21.45;48.95
61769;BME280;47669;48.712;9.016;2023-07-31T10:36:18;96408.91;;;22.04;49.17
61769;BME280;47669;48.712;9.016;2023-07-31T10:38:44;96418.84;;;20.87;48.90
61769;BME280;47669;48.712;9.016;2023-07-31T10:41:10;96410.78;;;21.55;48.89
61769;BME280;47669;48.712;9.016;2023-07-31T10:43:37;96400.56;;;21.23;50.04
61769;BME280;47669;48.712;9.016;2023-07-31T10:46:11;96411.69;;;22.42;48.97
61769;BME280;47669;48.712;9.016;2023-07-31T10:48:38;96395.63;;;22.13;46.99
61769;BME280;47669;48.712;9.016;2023-07-31T10:51:10;96397.06;;;22.29;47.55
61769;BME280;47669;48.712;9.016;2023-07-31T10:53:37;96405.72;;;22.02;46.81
61769;BME280;47669;48.712;9.016;2023-07-31T10:56:04;96407.59;;;22.02;47.96
61769;BME280;47669;48.712;9.016;2023-07-31T10:58:31;96409.47;;;21.53;49.41
61769;BME280;47669;48.712;9.016;2023-07-31T11:01:02;96398.50;;;21.98;49.54
61769;BME280;47669;48.712;9.016;2023-07-31T11:03:45;96398.72;;;21.77;49.87
61769;BME280;47669;48.712;9.016;2023-07-31T11:06:10;96402.56;;;21.07;49.15
61769;BME280;47669;48.712;9.016;2023-07-31T11:08:42;96399.25;;;20.86;51.67
61769;BME280;47669;48.712;9.016;2023-07-31T11:11:09;96395.28;;;20.79;51.09
61769;BME280;47669;48.712;9.016;2023-07-31T11:13:49;96395.81;;;20.81;50.73
61769;BME280;47669;48.712;9.016;2023-07-31T11:16:15;96400.63;;;20.34;51.56
61769;BME280;47669;48.712;9.016;2023-07-31T11:18:45;96401.53;;;20.69;53.43
61769;BME280;47669;48.712;9.016;2023-07-31T11:21:29;96401.81;;;20.57;51.32
61769;BME280;47669;48.712;9.016;2023-07-31T11:23:57;96401.22;;;20.21;52.36
61769;BME280;47669;48.712;9.016;2023-07-31T11:26:23;96400.03;;;20.42;52.27
61769;BME280;47669;48.712;9.016;2023-07-31T11:28:50;96394.47;;;20.23;52.23
61769;BME280;47669;48.712;9.016;2023-07-31T11:31:15;96394.13;;;20.40;52.90
61769;BME280;47669;48.712;9.016;2023-07-31T11:33:40;96396.50;;;20.52;53.77
61769;BME280;47669;48.712;9.016;2023-07-31T11:36:06;96403.19;;;20.60;53.29
61769;BME280;47669;48.712;9.016;2023-07-31T11:38:39;96403.44;;;20.63;53.30
61769;BME280;47669;48.712;9.016;2023-07-31T11:41:04;96396.22;;;20.59;53.31
61769;BME280;47669;48.712;9.016;2023-07-31T11:43:33;96396.41;;;20.18;51.56
61769;BME280;47669;48.712;9.016;2023-07-31T11:46:00;96382.38;;;20.31;52.58
61769;BME280;47669;48.712;9.016;2023-07-31T11:48:29;96376.53;;;20.19;53.45
61769;BME280;47669;48.712;9.016;2023-07-31T11:50:59;96383.97;;;20.37;54.42
61769;BME280;47669;48.712;9.016;2023-07-31T11:53:31;96373.69;;;20.49;53.24
61769;BME280;47669;48.712;9.016;2023-07-31T11:55:58;96360.47;;;20.13;52.42
61769;BME280;47669;48.712;9.016;2023-07-31T11:58:24;96363.72;;;20.05;53.52
61769;BME280;47669;48.712;9.016;2023-07-31T12:00:50;96358.00;;;20.22;53.08
61769;BME280;47669;48.712;9.016;2023-07-31T12:03:15;96352.22;;;20.49;52.81
61769;BME280;47669;48.712;9.016;2023-07-31T12:05:41;96354.72;;;20.36;52.90
61769;BME280;47669;48.712;9.016;2023-07-31T12:08:10;96346.75;;;20.20;53.08
61769;BME280;47669;48.712;9.016;2023-07-31T12:10:39;96345.44;;;20.18;52.14
61769;BME280;47669;48.712;9.016;2023-07-31T12:13:11;96355.34;;;20.22;52.48
61769;BME280;47669;48.712;9.016;2023-07-31T12:15:44;96356.03;;;20.38;52.65
61769;BME280;47669;48.712;9.016;2023-07-31T12:18:13;96347.59;;;20.16;52.06
61769;BME280;47669;48.712;9.016;2023-07-31T12:20:43;96350.09;;;19.97;51.94
61769;BME280;47669;48.712;9.016;2023-07-31T12:23:17;96349.38;;;19.76;52.43
61769;BME280;47669;48.712;9.016;2023-07-31T12:25:42;96339.66;;;19.90;52.70
61769;BME280;47669;48.712;9.016;2023-07-31T12:28:08;96332.06;;;20.02;53.43
61769;BME280;47669;48.712;9.016;2023-07-31T12:30:38;96338.38;;;19.77;52.69
61769;BME280;47669;48.712;9.016;2023-07-31T12:33:12;96326.78;;;19.87;52.99
61769;BME280;47669;48.712;9.016;2023-07-31T12:35:41;96327.59;;;19.92;52.49
61769;BME280;47669;48.712;9.016;2023-07-31T12:38:06;96328.63;;;19.97;52.72
61769;BME280;47669;48.712;9.016;2023-07-31T12:40:32;96316.47;;;20.14;52.52
61769;BME280;47669;48.712;9.016;2023-07-31T12:43:00;96320.84;;;20.45;52.41
61769;BME280;47669;48.712;9.016;2023-07-31T12:45:26;96311.81;;;20.70;52.18
61769;BME280;47669;48.712;9.016;2023-07-31T12:47:52;96318.72;;;20.81;51.51
61769;BME280;47669;48.712;9.016;2023-07-31T12:50:17;96311.13;;;20.88;52.04
61769;BME280;47669;48.712;9.016;2023-07-31T12:52:42;96307.28;;;21.00;51.47
61769;BME280;47669;48.712;9.016;2023-07-31T12:55:07;96296.19;;;20.77;51.07
61769;BME280;47669;48.712;9.016;2023-07-31T12:57:33;96297.53;;;21.09;50.97
61769;BME280;47669;48.712;9.016;2023-07-31T12:59:58;96286.84;;;21.28;51.23